createdAt,value
2022-08-01T00:01:50.901Z,21.00
2022-08-01T00:06:44.379Z,21.00
2022-08-01T00:11:39.265Z,21.00
2022-08-01T00:16:32.691Z,20.90
2022-08-01T00:21:26.063Z,20.80
2022-08-01T00:26:19.788Z,20.60
2022-08-01T00:31:14.736Z,20.50
2022-08-01T00:36:08.185Z,20.50
2022-08-01T00:41:01.707Z,20.50
2022-08-01T00:45:55.104Z,20.30
2022-08-01T00:50:50.649Z,20.20
2022-08-01T00:55:44.894Z,20.30
2022-08-01T01:00:53.321Z,20.10
2022-08-01T01:06:04.244Z,20.00
2022-08-01T01:11:06.210Z,19.90
2022-08-01T01:16:03.777Z,20.00
2022-08-01T01:21:11.976Z,19.90
2022-08-01T01:26:30.392Z,20.10
2022-08-01T01:31:28.787Z,19.90
2022-08-01T01:36:26.888Z,19.80
2022-08-01T01:41:21.948Z,19.90
2022-08-01T01:46:23.564Z,19.80
2022-08-01T01:51:20.141Z,19.80
2022-08-01T01:56:18.419Z,19.70
2022-08-01T02:01:14.636Z,19.70
2022-08-01T02:06:09.933Z,19.60
2022-08-01T02:11:23.208Z,19.60
2022-08-01T02:16:19.644Z,19.60
2022-08-01T02:21:21.986Z,19.70
2022-08-01T02:26:20.839Z,19.70
2022-08-01T02:31:20.185Z,19.50
2022-08-01T02:36:31.174Z,19.30
2022-08-01T02:41:30.392Z,19.30
2022-08-01T02:46:30.274Z,19.30
2022-08-01T02:51:27.809Z,19.30
2022-08-01T02:56:24.781Z,19.40
2022-08-01T03:01:22.203Z,19.40
2022-08-01T03:06:17.721Z,19.30
2022-08-01T03:11:12.529Z,19.40
2022-08-01T03:16:08.616Z,19.30
2022-08-01T03:21:05.343Z,19.00
2022-08-01T03:26:00.468Z,19.10
2022-08-01T03:30:56.314Z,19.00
2022-08-01T03:35:56.440Z,19.00
2022-08-01T03:40:58.103Z,18.70
2022-08-01T03:45:55.033Z,18.40
2022-08-01T03:50:53.592Z,18.40
2022-08-01T03:55:47.374Z,18.50
2022-08-01T04:00:43.380Z,18.60
2022-08-01T04:05:37.490Z,18.70
2022-08-01T04:10:31.567Z,18.70
2022-08-01T04:15:25.220Z,18.50
2022-08-01T04:20:20.083Z,18.50
2022-08-01T04:25:21.567Z,18.60
2022-08-01T04:30:20.995Z,18.70
2022-08-01T04:35:23.348Z,18.60
2022-08-01T04:40:37.948Z,18.60
2022-08-01T04:45:32.224Z,18.70
2022-08-01T04:50:27.852Z,18.50
2022-08-01T04:55:21.269Z,18.50
2022-08-01T05:00:18.431Z,18.60
2022-08-01T05:05:13.597Z,18.70
2022-08-01T05:10:09.614Z,18.80
2022-08-01T05:15:03.045Z,19.20
2022-08-01T05:19:56.512Z,19.50
2022-08-01T05:24:50.001Z,19.70
2022-08-01T05:29:45.138Z,19.80
2022-08-01T05:34:53.979Z,19.90
2022-08-01T05:40:01.132Z,19.90
2022-08-01T05:44:55.833Z,19.90
2022-08-01T05:49:49.425Z,19.90
2022-08-01T05:54:43.177Z,19.80
2022-08-01T05:59:36.579Z,20.00
2022-08-01T06:04:31.455Z,20.10
2022-08-01T06:09:27.746Z,20.30
2022-08-01T06:14:29.544Z,20.40
2022-08-01T06:19:23.182Z,20.50
2022-08-01T06:24:17.906Z,20.60
2022-08-01T06:29:11.245Z,20.60
2022-08-01T06:34:05.695Z,20.60
2022-08-01T06:38:59.086Z,20.70
2022-08-01T06:43:54.516Z,20.80
2022-08-01T06:48:48.074Z,20.80
2022-08-01T06:53:41.598Z,20.90
2022-08-01T06:58:37.699Z,21.10
2022-08-01T07:03:52.382Z,21.10
2022-08-01T07:08:46.210Z,21.20
2022-08-01T07:13:43.973Z,21.40
2022-08-01T07:18:39.118Z,21.50
2022-08-01T07:23:33.905Z,21.80
2022-08-01T07:28:30.831Z,22.00
2022-08-01T07:33:24.523Z,22.10
2022-08-01T07:38:19.713Z,22.30
2022-08-01T07:43:13.064Z,22.60
2022-08-01T07:48:09.285Z,22.90
2022-08-01T07:53:03.493Z,23.00
2022-08-01T07:57:58.313Z,23.30
2022-08-01T08:02:51.778Z,23.60
2022-08-01T08:07:45.238Z,23.60
2022-08-01T08:12:38.867Z,23.80
2022-08-01T08:17:35.558Z,23.90
2022-08-01T08:22:32.688Z,24.10
2022-08-01T08:27:26.801Z,24.50
2022-08-01T08:32:20.221Z,24.60
2022-08-01T08:37:15.208Z,24.90
2022-08-01T08:42:10.146Z,25.10
2022-08-01T08:47:09.216Z,25.30
2022-08-01T08:52:05.084Z,25.40
2022-08-01T08:57:02.355Z,25.40
2022-08-01T09:01:56.565Z,25.60
2022-08-01T09:06:50.715Z,25.80
2022-08-01T09:11:44.145Z,26.10
2022-08-01T09:17:04.207Z,26.40
2022-08-01T09:22:00.826Z,26.30
2022-08-01T09:26:55.233Z,26.30
2022-08-01T09:31:52.918Z,26.60
2022-08-01T09:36:54.373Z,26.70
2022-08-01T09:41:48.486Z,27.00
2022-08-01T09:46:54.971Z,26.90
2022-08-01T09:52:00.190Z,27.10
2022-08-01T09:56:54.165Z,27.40
2022-08-01T10:01:50.114Z,27.40
2022-08-01T10:06:50.883Z,27.60
2022-08-01T10:11:45.489Z,27.70
2022-08-01T10:16:40.245Z,27.80
2022-08-01T10:21:45.474Z,27.80
2022-08-01T10:26:55.842Z,27.70
2022-08-01T10:31:50.912Z,27.90
2022-08-01T10:36:47.902Z,27.90
2022-08-01T10:41:42.500Z,27.90
2022-08-01T10:46:40.886Z,28.00
2022-08-01T10:51:52.357Z,28.10
2022-08-01T10:56:51.651Z,28.20
2022-08-01T11:02:00.248Z,28.20
2022-08-01T11:07:07.402Z,28.10
2022-08-01T11:12:13.095Z,28.20
2022-08-01T11:17:37.670Z,28.10
2022-08-01T11:23:26.533Z,28.10
2022-08-01T11:28:31.941Z,28.10
2022-08-01T11:39:16.889Z,28.00
2022-08-01T11:44:13.014Z,28.10
2022-08-01T11:49:28.951Z,28.10
2022-08-01T11:54:35.330Z,28.30
2022-08-01T11:59:41.362Z,28.50
2022-08-01T12:04:56.714Z,28.30
2022-08-01T12:10:02.687Z,28.20
2022-08-01T12:14:59.376Z,28.20
2022-08-01T12:19:52.780Z,28.20
2022-08-01T12:24:46.161Z,28.30
2022-08-01T12:29:44.703Z,28.10
2022-08-01T12:34:39.116Z,27.80
2022-08-01T12:39:38.379Z,27.90
2022-08-01T12:44:34.402Z,28.00
2022-08-01T12:49:29.693Z,28.10
2022-08-01T12:54:23.422Z,28.10
2022-08-01T12:59:26.084Z,28.10
2022-08-01T13:04:19.489Z,28.20
2022-08-01T13:09:14.771Z,28.30
2022-08-01T13:14:08.290Z,28.30
2022-08-01T13:19:01.923Z,28.20
2022-08-01T13:24:08.213Z,27.90
2022-08-01T13:29:08.806Z,27.70
2022-08-01T13:34:02.230Z,27.90
2022-08-01T13:39:12.999Z,27.70
2022-08-01T13:44:09.887Z,27.50
2022-08-01T13:49:15.179Z,27.20
2022-08-01T13:54:10.027Z,27.30
2022-08-01T13:59:03.972Z,27.50
2022-08-01T14:03:58.705Z,27.70
2022-08-01T14:08:52.112Z,27.70
2022-08-01T14:13:46.602Z,27.70
2022-08-01T14:18:40.417Z,27.70
2022-08-01T14:23:39.201Z,27.80
2022-08-01T14:28:33.207Z,27.60
2022-08-01T14:33:27.256Z,27.40
2022-08-01T14:38:31.447Z,27.30
2022-08-01T14:43:32.698Z,27.30
2022-08-01T14:48:26.736Z,27.50
2022-08-01T14:53:20.403Z,27.70
2022-08-01T14:58:13.859Z,27.70
2022-08-01T15:03:08.633Z,27.70
2022-08-01T15:08:02.013Z,27.60
2022-08-01T15:12:56.591Z,27.40
2022-08-01T15:17:49.997Z,27.50
2022-08-01T15:22:44.993Z,27.50
2022-08-01T15:27:38.451Z,27.60
2022-08-01T15:32:31.928Z,27.60
2022-08-01T15:37:25.722Z,27.60
2022-08-01T15:42:25.594Z,27.60
2022-08-01T15:47:20.622Z,27.40
2022-08-01T15:52:22.156Z,27.10
2022-08-01T15:57:16.184Z,27.20
2022-08-01T16:02:11.470Z,27.20
2022-08-01T16:07:05.179Z,27.40
2022-08-01T16:11:58.632Z,27.60
2022-08-01T16:16:51.978Z,27.80
2022-08-01T16:21:47.880Z,27.80
2022-08-01T16:26:41.505Z,27.70
2022-08-01T16:32:01.466Z,27.70
2022-08-01T16:36:50.292Z,27.70
2022-08-01T16:41:43.642Z,27.70
2022-08-01T16:46:37.287Z,27.80
2022-08-01T16:51:32.453Z,27.80
2022-08-01T16:56:27.844Z,27.90
2022-08-01T17:02:03.360Z,27.70
2022-08-01T17:06:35.083Z,27.60
2022-08-01T17:11:30.083Z,27.60
2022-08-01T17:16:23.880Z,27.50
2022-08-01T17:21:17.332Z,27.30
2022-08-01T17:26:10.898Z,27.00
2022-08-01T17:31:07.487Z,26.80
2022-08-01T17:36:03.994Z,26.50
2022-08-01T17:40:57.507Z,26.50
2022-08-01T17:45:51.578Z,26.50
2022-08-01T17:50:48.861Z,26.40
2022-08-01T17:55:56.004Z,26.40
2022-08-01T18:00:52.643Z,26.40
2022-08-01T18:05:49.548Z,26.40
2022-08-01T18:10:47.004Z,26.20
2022-08-01T18:15:40.807Z,26.00
2022-08-01T18:20:37.967Z,25.90
2022-08-01T18:25:35.353Z,25.80
2022-08-01T18:30:29.193Z,25.70
2022-08-01T18:35:32.425Z,25.60
2022-08-01T18:40:40.071Z,25.60
2022-08-01T18:45:35.960Z,25.40
2022-08-01T18:50:31.970Z,25.30
2022-08-01T18:55:26.092Z,25.30
2022-08-01T19:00:20.987Z,25.00
2022-08-01T19:05:14.560Z,24.80
2022-08-01T19:10:09.021Z,24.70
2022-08-01T19:15:11.767Z,24.70
2022-08-01T19:20:09.139Z,24.50
2022-08-01T19:25:02.724Z,24.30
2022-08-01T19:30:03.067Z,24.00
2022-08-01T19:35:07.306Z,23.90
2022-08-01T19:40:01.499Z,23.70
2022-08-01T19:44:59.088Z,23.80
2022-08-01T19:49:52.682Z,23.90
2022-08-01T19:54:53.438Z,24.20
2022-08-01T19:59:48.966Z,24.20
2022-08-01T20:04:44.700Z,24.00
2022-08-01T20:09:43.901Z,24.10
2022-08-01T20:14:39.163Z,24.20
2022-08-01T20:19:33.093Z,24.10
2022-08-01T20:24:29.772Z,24.20
2022-08-01T20:29:29.281Z,24.10
2022-08-01T20:34:25.963Z,23.90
2022-08-01T20:39:21.556Z,24.00
2022-08-01T20:44:17.151Z,24.10
2022-08-01T20:49:13.885Z,23.80
2022-08-01T20:54:11.840Z,23.80
2022-08-01T20:59:39.558Z,23.60
2022-08-01T21:04:55.951Z,23.40
2022-08-01T21:10:00.191Z,23.10
2022-08-01T21:14:57.611Z,23.10
2022-08-01T21:19:57.794Z,23.00
2022-08-01T21:25:01.895Z,22.90
2022-08-01T21:29:58.064Z,22.70
2022-08-01T21:34:53.101Z,22.60
2022-08-01T21:39:48.055Z,22.70
2022-08-01T21:44:46.405Z,22.70
2022-08-01T21:49:40.596Z,22.80
2022-08-01T21:54:48.697Z,22.50
2022-08-01T21:59:55.888Z,22.50
2022-08-01T22:05:02.225Z,22.30
2022-08-01T22:09:59.836Z,22.40
2022-08-01T22:14:58.703Z,22.40
2022-08-01T22:19:55.134Z,22.50
2022-08-01T22:24:50.809Z,22.50
2022-08-01T22:29:44.682Z,22.30
2022-08-01T22:34:39.458Z,22.30
2022-08-01T22:39:32.761Z,22.30
2022-08-01T22:44:35.988Z,22.00
2022-08-01T22:49:44.627Z,21.90
2022-08-01T22:54:42.000Z,21.90
2022-08-01T22:59:47.440Z,21.50
2022-08-01T23:04:47.639Z,21.30
2022-08-01T23:09:54.023Z,21.50
2022-08-01T23:14:50.895Z,21.70
2022-08-01T23:19:47.685Z,22.00
2022-08-01T23:25:03.589Z,21.90
2022-08-01T23:29:58.829Z,21.70
2022-08-01T23:34:54.391Z,21.80
2022-08-01T23:39:49.430Z,21.70
2022-08-01T23:44:43.063Z,21.50
2022-08-01T23:49:53.123Z,21.40
2022-08-01T23:54:49.186Z,21.40
2022-08-01T23:59:53.371Z,21.40
